Time;durP1;ratioP1;P1;durP2;ratioP2;P2;SDS_P1;SDS_P2;PMS_P1;PMS_P2;Temp;Humidity;BMP_temperature;BMP_pressure;BME280_temperature;BME280_humidity;BME280_pressure;Samples;Min_cycle;Max_cycle;Signal;HPM_P1;HPM_P2
2022/07/15 00:02:22;;;;;;;0.90;0.50;;;20.10;85.50;;;;;;5015669;28;20406;-72
2022/07/15 00:04:47;;;;;;;0.80;0.70;;;20.00;87.20;;;;;;5015635;28;20174;-72
2022/07/15 00:07:13;;;;;;;0.60;0.60;;;19.90;88.30;;;;;;5015446;28;20182;-71
2022/07/15 00:12:23;;;;;;;1.10;0.97;;;19.70;89.20;;;;;;5015874;28;20750;-72
2022/07/15 00:14:49;;;;;;;0.70;0.70;;;19.50;90.50;;;;;;5015355;28;20406;-72
2022/07/15 00:17:15;;;;;;;0.97;0.97;;;19.40;90.40;;;;;;5015229;28;20203;-71
2022/07/15 00:19:42;;;;;;;1.40;1.30;;;19.30;90.50;;;;;;5015304;28;20191;-73
2022/07/15 00:22:08;;;;;;;1.23;1.13;;;19.20;91.00;;;;;;5015128;28;20403;-72
2022/07/15 00:24:33;;;;;;;0.73;0.70;;;19.10;91.20;;;;;;5014962;28;20823;-72
2022/07/15 00:26:59;;;;;;;1.00;1.00;;;19.10;91.40;;;;;;5015202;28;20405;-71
2022/07/15 00:29:25;;;;;;;0.83;0.83;;;19.00;91.60;;;;;;5015126;28;20202;-72
2022/07/15 00:31:52;;;;;;;0.70;0.70;;;19.00;91.40;;;;;;5014995;28;20168;-72
2022/07/15 00:34:17;;;;;;;0.80;0.77;;;19.00;91.90;;;;;;5014878;28;20445;-71
2022/07/15 00:36:44;;;;;;;1.17;0.77;;;19.00;92.20;;;;;;5014966;28;20478;-71
2022/07/15 00:39:09;;;;;;;0.67;0.67;;;19.10;92.70;;;;;;5014636;28;20187;-71
2022/07/15 00:41:39;;;;;;;0.70;0.70;;;19.00;93.00;;;;;;5014906;28;20409;-72
2022/07/15 00:44:05;;;;;;;0.90;0.90;;;18.90;93.00;;;;;;5014920;28;20633;-72
2022/07/15 00:46:31;;;;;;;0.70;0.70;;;18.90;93.30;;;;;;5015095;28;20413;-72
2022/07/15 00:48:58;;;;;;;0.90;0.90;;;18.90;94.10;;;;;;5014202;28;20187;-72
2022/07/15 00:51:24;;;;;;;0.57;0.57;;;18.90;93.30;;;;;;5014577;28;20406;-71
2022/07/15 00:53:50;;;;;;;0.83;0.83;;;18.80;93.20;;;;;;5013359;28;20405;-73
2022/07/15 00:56:19;;;;;;;0.60;0.60;;;18.80;93.30;;;;;;5014577;28;20570;-72
2022/07/15 00:58:47;;;;;;;0.83;0.83;;;18.70;93.70;;;;;;5014390;28;20525;-72
2022/07/15 01:01:18;;;;;;;0.93;0.90;;;18.70;94.00;;;;;;5014593;28;20485;-71
2022/07/15 01:03:45;;;;;;;1.60;1.50;;;18.60;93.70;;;;;;5014870;28;20399;-72
2022/07/15 01:06:11;;;;;;;0.90;0.87;;;18.60;93.60;;;;;;5014608;28;20407;-72
2022/07/15 01:08:37;;;;;;;0.97;0.97;;;18.60;93.80;;;;;;5014149;28;20422;-71
2022/07/15 01:11:03;;;;;;;0.60;0.60;;;18.70;93.40;;;;;;5014472;28;20632;-71
2022/07/15 01:13:29;;;;;;;1.10;0.87;;;18.60;93.90;;;;;;5014452;28;20674;-72
2022/07/15 01:15:55;;;;;;;1.50;1.20;;;18.60;94.10;;;;;;5014322;28;20458;-71
2022/07/15 01:18:21;;;;;;;0.70;0.70;;;18.50;94.20;;;;;;5014030;28;20188;-71
2022/07/15 01:20:47;;;;;;;0.60;0.60;;;18.50;94.50;;;;;;5014062;28;20294;-72
2022/07/15 01:23:14;;;;;;;0.50;0.50;;;18.40;94.90;;;;;;5012235;28;20417;-72
2022/07/15 01:25:40;;;;;;;0.87;0.87;;;18.30;94.90;;;;;;5014081;28;20442;-72
2022/07/15 01:28:08;;;;;;;1.20;1.10;;;18.20;94.70;;;;;;5013863;28;20438;-72
2022/07/15 01:30:33;;;;;;;0.70;0.70;;;18.20;95.00;;;;;;5013999;28;20694;-73
2022/07/15 01:33:00;;;;;;;0.60;0.60;;;18.20;95.00;;;;;;5014200;28;20465;-71
2022/07/15 01:35:28;;;;;;;0.77;0.77;;;18.20;94.80;;;;;;5014065;28;20512;-72
2022/07/15 01:37:54;;;;;;;0.70;0.70;;;18.10;94.90;;;;;;5013629;28;20434;-71
2022/07/15 01:40:19;;;;;;;0.80;0.80;;;18.00;95.30;;;;;;5013901;28;20403;-71
2022/07/15 01:42:45;;;;;;;0.60;0.60;;;18.00;95.20;;;;;;5013969;28;20174;-70
2022/07/15 01:45:11;;;;;;;1.83;0.80;;;18.00;95.30;;;;;;5013761;28;20658;-71
2022/07/15 01:47:44;;;;;;;0.97;0.97;;;17.90;95.60;;;;;;5013624;28;20647;-72
2022/07/15 01:50:10;;;;;;;1.00;0.90;;;17.80;95.60;;;;;;5013892;28;20171;-71
2022/07/15 01:52:36;;;;;;;1.47;0.90;;;17.80;95.50;;;;;;5013882;28;20495;-72
2022/07/15 01:55:04;;;;;;;0.73;0.73;;;17.80;95.30;;;;;;5013640;28;20435;-71
2022/07/15 01:57:30;;;;;;;0.70;0.70;;;17.80;95.30;;;;;;5013401;28;20464;-72
2022/07/15 01:59:56;;;;;;;0.60;0.60;;;17.70;95.20;;;;;;5013797;28;20431;-72
2022/07/15 02:02:22;;;;;;;1.07;1.00;;;17.80;94.90;;;;;;5013819;28;20406;-72
2022/07/15 02:04:47;;;;;;;1.07;0.53;;;17.70;94.50;;;;;;5013804;28;20531;-72
2022/07/15 02:07:13;;;;;;;0.93;0.90;;;17.80;94.10;;;;;;5013650;28;20406;-72
2022/07/15 02:09:39;;;;;;;1.27;1.00;;;17.70;93.60;;;;;;5013409;28;20199;-71
2022/07/15 02:12:06;;;;;;;1.03;1.03;;;17.60;93.50;;;;;;5013491;28;20174;-72
2022/07/15 02:14:33;;;;;;;1.40;1.30;;;17.70;93.40;;;;;;5013506;28;20171;-72
2022/07/15 02:16:59;;;;;;;1.50;1.40;;;17.70;93.90;;;;;;5013175;28;20461;-71
2022/07/15 02:19:25;;;;;;;0.70;0.70;;;17.70;93.90;;;;;;5013291;28;20427;-71
2022/07/15 02:21:51;;;;;;;1.70;1.60;;;17.80;94.00;;;;;;5013433;28;20418;-71
2022/07/15 02:24:19;;;;;;;0.90;0.90;;;17.70;94.00;;;;;;5013483;28;20206;-72
2022/07/15 02:26:48;;;;;;;0.80;0.80;;;17.80;93.50;;;;;;5013521;28;20578;-71
2022/07/15 02:29:14;;;;;;;2.13;2.03;;;17.70;93.30;;;;;;5013043;28;20521;-71
2022/07/15 02:31:41;;;;;;;1.13;1.07;;;17.60;93.90;;;;;;5013371;28;20407;-71
2022/07/15 02:34:07;;;;;;;0.47;0.47;;;17.60;93.50;;;;;;5015822;28;20410;-72
2022/07/15 02:36:33;;;;;;;1.37;1.27;;;17.50;93.40;;;;;;5017287;28;20502;-71
2022/07/15 02:38:59;;;;;;;0.70;0.70;;;17.40;92.80;;;;;;5015819;28;20433;-71
2022/07/15 02:41:24;;;;;;;1.30;1.20;;;17.40;93.50;;;;;;5017038;28;20767;-72
2022/07/15 02:43:51;;;;;;;0.70;0.70;;;17.40;93.20;;;;;;5017112;28;20251;-72
2022/07/15 02:46:17;;;;;;;1.17;0.93;;;17.40;92.90;;;;;;5017033;28;20210;-71
2022/07/15 02:48:42;;;;;;;0.97;0.97;;;17.40;92.70;;;;;;5016685;28;20450;-71
2022/07/15 02:51:08;;;;;;;0.93;0.93;;;17.40;92.00;;;;;;5016883;28;20438;-72
2022/07/15 02:53:35;;;;;;;0.90;0.83;;;17.30;92.20;;;;;;5017026;28;20399;-71
2022/07/15 02:56:01;;;;;;;0.90;0.90;;;17.20;92.00;;;;;;5016730;28;20207;-72
2022/07/15 02:58:29;;;;;;;2.73;1.70;;;17.10;92.00;;;;;;5016583;28;20518;-71
2022/07/15 03:00:55;;;;;;;1.03;1.03;;;17.10;91.90;;;;;;5016710;28;20434;-71
2022/07/15 03:03:20;;;;;;;1.23;1.03;;;17.00;92.00;;;;;;5016857;28;20405;-71
2022/07/15 03:05:46;;;;;;;0.80;0.80;;;17.10;91.70;;;;;;5016758;28;20472;-71
2022/07/15 03:08:12;;;;;;;0.90;0.90;;;17.10;91.80;;;;;;5016379;28;20197;-72
2022/07/15 03:10:38;;;;;;;0.73;0.60;;;17.10;91.50;;;;;;5016643;28;20417;-72
2022/07/15 03:13:03;;;;;;;0.60;0.60;;;17.00;91.80;;;;;;5016517;28;20534;-71
2022/07/15 03:15:29;;;;;;;0.63;0.63;;;17.00;91.50;;;;;;5016435;28;20666;-71
2022/07/15 03:17:55;;;;;;;0.90;0.90;;;16.90;91.50;;;;;;5016345;28;20172;-70
2022/07/15 03:20:21;;;;;;;0.70;0.70;;;16.90;91.30;;;;;;5016356;28;20779;-71
2022/07/15 03:22:46;;;;;;;0.83;0.80;;;16.80;91.20;;;;;;5016445;28;20644;-71
2022/07/15 03:25:12;;;;;;;3.40;1.10;;;16.80;91.80;;;;;;5016199;28;20437;-71
2022/07/15 03:27:38;;;;;;;1.03;0.67;;;16.80;91.80;;;;;;5016234;28;20176;-72
2022/07/15 03:30:04;;;;;;;0.90;0.90;;;16.80;91.90;;;;;;5016040;28;20706;-72
2022/07/15 03:32:30;;;;;;;0.50;0.50;;;16.60;91.40;;;;;;5016312;28;20167;-71
2022/07/15 03:34:58;;;;;;;1.00;1.00;;;16.60;91.60;;;;;;5016258;28;20399;-71
2022/07/15 03:37:24;;;;;;;1.43;1.00;;;16.60;91.90;;;;;;5015905;28;20461;-71
2022/07/15 03:39:50;;;;;;;1.00;1.00;;;16.60;91.60;;;;;;5015888;28;20446;-72
2022/07/15 03:42:15;;;;;;;0.60;0.60;;;16.50;91.40;;;;;;5016157;28;20769;-72
2022/07/15 03:44:41;;;;;;;0.57;0.57;;;16.40;91.50;;;;;;5014883;28;20767;-71
2022/07/15 03:47:07;;;;;;;1.20;1.00;;;16.40;91.30;;;;;;5015700;28;20240;-72
2022/07/15 03:49:33;;;;;;;1.00;1.00;;;16.40;91.20;;;;;;5015670;28;20679;-71
2022/07/15 03:51:58;;;;;;;1.47;1.37;;;16.40;91.30;;;;;;5015684;28;20218;-71
2022/07/15 03:54:24;;;;;;;1.03;0.93;;;16.30;91.90;;;;;;5015651;28;20583;-71
2022/07/15 03:56:50;;;;;;;0.90;0.90;;;16.30;91.60;;;;;;5015543;28;20218;-71
2022/07/15 03:59:20;;;;;;;0.70;0.60;;;16.30;91.70;;;;;;5015385;28;20803;-71
2022/07/15 04:01:47;;;;;;;1.67;1.57;;;16.30;91.70;;;;;;5015657;28;20903;-72
2022/07/15 04:04:13;;;;;;;0.60;0.60;;;16.10;91.70;;;;;;5015556;28;20413;-71
2022/07/15 04:06:39;;;;;;;0.50;0.50;;;16.20;91.60;;;;;;5015334;28;20920;-71
2022/07/15 04:09:04;;;;;;;0.87;0.87;;;16.20;91.50;;;;;;5015125;28;20219;-71
2022/07/15 04:11:30;;;;;;;0.70;0.70;;;16.10;91.80;;;;;;5015590;28;20273;-72
2022/07/15 04:13:56;;;;;;;1.50;0.70;;;16.10;92.20;;;;;;5015418;28;20174;-71
2022/07/15 04:16:21;;;;;;;0.60;0.60;;;16.00;92.50;;;;;;5015318;28;20795;-72
2022/07/15 04:18:47;;;;;;;1.03;1.03;;;16.10;92.60;;;;;;5014990;28;20213;-70
2022/07/15 04:21:13;;;;;;;1.43;1.43;;;16.00;92.10;;;;;;5015178;28;20637;-71
2022/07/15 04:23:38;;;;;;;1.33;1.33;;;16.00;92.00;;;;;;5013883;28;20238;-72
2022/07/15 04:26:04;;;;;;;0.97;0.90;;;16.00;92.20;;;;;;5015061;28;20545;-70
2022/07/15 04:28:30;;;;;;;1.10;1.03;;;16.00;92.20;;;;;;5014922;28;20195;-72
2022/07/15 04:30:56;;;;;;;0.50;0.50;;;16.00;92.60;;;;;;5015099;28;20177;-70
2022/07/15 04:33:23;;;;;;;0.50;0.50;;;16.00;93.00;;;;;;5015075;28;20221;-71
2022/07/15 04:35:49;;;;;;;0.60;0.60;;;16.00;92.60;;;;;;5015018;28;20201;-71
2022/07/15 04:38:14;;;;;;;0.90;0.90;;;16.00;92.40;;;;;;5014652;28;20421;-71
2022/07/15 04:40:41;;;;;;;1.17;0.90;;;16.10;92.30;;;;;;5014906;28;20406;-72
2022/07/15 04:43:07;;;;;;;1.10;0.87;;;16.20;92.30;;;;;;5014866;28;20170;-71
2022/07/15 04:45:33;;;;;;;1.20;1.10;;;16.60;92.10;;;;;;5014931;28;20410;-71
2022/07/15 04:47:59;;;;;;;0.80;0.80;;;17.00;92.00;;;;;;5014567;28;20545;-71
2022/07/15 04:53:09;;;;;;;1.17;0.87;;;17.80;91.30;;;;;;5014778;28;20803;-72
2022/07/15 04:55:35;;;;;;;1.17;1.07;;;18.00;90.50;;;;;;5014517;28;20402;-72
2022/07/15 04:58:01;;;;;;;1.37;1.27;;;18.10;90.10;;;;;;5014346;28;20168;-70
2022/07/15 05:00:26;;;;;;;0.63;0.63;;;18.30;90.00;;;;;;5012576;28;20172;-71
2022/07/15 05:02:53;;;;;;;1.17;1.10;;;18.60;89.10;;;;;;5012346;28;20174;-71
2022/07/15 05:05:20;;;;;;;0.80;0.80;;;19.00;89.20;;;;;;5011904;28;20165;-70
2022/07/15 05:07:45;;;;;;;0.73;0.73;;;19.40;86.70;;;;;;5012089;28;20431;-71
2022/07/15 05:10:12;;;;;;;0.63;0.50;;;20.00;83.30;;;;;;5012602;28;20421;-71
2022/07/15 05:12:39;;;;;;;1.10;1.10;;;20.70;81.80;;;;;;5013077;28;20717;-71
2022/07/15 05:15:05;;;;;;;1.47;1.30;;;21.50;76.80;;;;;;5013568;28;20495;-71
2022/07/15 05:17:32;;;;;;;0.60;0.60;;;22.20;73.80;;;;;;5014413;28;20453;-72
2022/07/15 05:19:57;;;;;;;0.60;0.60;;;22.50;72.50;;;;;;5014243;28;20429;-72
2022/07/15 05:22:23;;;;;;;0.63;0.57;;;22.60;71.10;;;;;;5014443;28;20738;-71
2022/07/15 05:24:49;;;;;;;0.57;0.57;;;22.50;71.80;;;;;;5014025;28;20189;-70
2022/07/15 05:27:15;;;;;;;0.83;0.83;;;22.40;70.20;;;;;;5014359;28;20411;-71
2022/07/15 05:29:41;;;;;;;0.50;0.50;;;22.20;72.80;;;;;;5014707;28;20231;-72
2022/07/15 05:32:07;;;;;;;0.70;0.70;;;21.90;75.40;;;;;;5014124;28;20439;-72
2022/07/15 05:34:32;;;;;;;0.50;0.50;;;21.70;75.00;;;;;;5013575;28;20691;-70
2022/07/15 05:36:58;;;;;;;1.07;0.97;;;21.60;74.30;;;;;;5012286;28;20644;-71
2022/07/15 05:39:24;;;;;;;1.17;1.00;;;21.50;77.00;;;;;;5014024;28;20193;-70
2022/07/15 05:41:50;;;;;;;0.60;0.60;;;21.40;76.50;;;;;;5013569;28;20215;-71
2022/07/15 05:44:16;;;;;;;0.67;0.67;;;21.40;74.50;;;;;;5012955;28;20899;-71
2022/07/15 05:46:42;;;;;;;1.17;1.07;;;21.40;75.10;;;;;;5012160;28;20329;-71
2022/07/15 05:49:08;;;;;;;0.83;0.60;;;21.90;76.10;;;;;;5013049;28;20986;-71
2022/07/15 05:51:33;;;;;;;0.60;0.50;;;22.40;71.60;;;;;;5012040;28;20508;-72
2022/07/15 05:53:59;;;;;;;0.77;0.77;;;22.70;73.20;;;;;;5012338;28;20181;-71
2022/07/15 05:56:25;;;;;;;0.83;0.80;;;23.20;71.80;;;;;;5013127;28;20199;-71
2022/07/15 05:58:51;;;;;;;0.70;0.70;;;23.90;69.80;;;;;;5013639;28;20430;-71
2022/07/15 06:01:16;;;;;;;1.63;0.70;;;24.50;69.10;;;;;;5014124;28;20178;-72
2022/07/15 06:03:42;;;;;;;0.50;0.50;;;24.60;67.40;;;;;;5013567;28;20510;-72
2022/07/15 06:06:08;;;;;;;0.63;0.63;;;24.40;66.70;;;;;;5013979;28;20176;-71
2022/07/15 06:08:35;;;;;;;0.63;0.50;;;24.10;69.40;;;;;;5015360;28;20538;-73
2022/07/15 06:11:00;;;;;;;0.57;0.57;;;23.80;70.80;;;;;;5018036;28;20969;-71
2022/07/15 06:13:26;;;;;;;0.70;0.70;;;23.50;71.00;;;;;;5018307;28;20407;-71
2022/07/15 06:15:52;;;;;;;0.77;0.50;;;23.30;72.60;;;;;;5018231;28;20450;-72
2022/07/15 06:18:19;;;;;;;0.87;0.80;;;23.30;71.70;;;;;;5016334;28;20426;-72
2022/07/15 06:20:44;;;;;;;0.50;0.50;;;23.50;71.50;;;;;;5017276;28;20197;-72
2022/07/15 06:23:10;;;;;;;0.77;0.60;;;24.10;70.00;;;;;;5017667;28;20389;-71
2022/07/15 06:25:36;;;;;;;0.60;0.53;;;25.10;69.60;;;;;;5015567;28;20218;-72
2022/07/15 06:28:02;;;;;;;0.43;0.43;;;26.70;64.60;;;;;;5015860;28;20250;-72
2022/07/15 06:30:28;;;;;;;1.83;1.73;;;28.30;61.10;;;;;;5017249;28;20410;-72
2022/07/15 06:32:54;;;;;;;0.77;0.77;;;29.50;57.90;;;;;;5017377;28;20945;-71
2022/07/15 06:35:20;;;;;;;9.60;0.80;;;30.20;54.10;;;;;;5017420;28;20807;-72
2022/07/15 06:37:46;;;;;;;0.70;0.63;;;30.40;53.20;;;;;;5016898;28;20172;-72
2022/07/15 06:40:12;;;;;;;0.60;0.57;;;30.30;53.00;;;;;;5017087;28;20765;-72
2022/07/15 06:42:38;;;;;;;0.70;0.70;;;30.20;52.30;;;;;;5016108;28;20180;-73
2022/07/15 06:45:04;;;;;;;1.10;0.73;;;30.00;52.30;;;;;;5016965;28;20421;-72
2022/07/15 06:47:31;;;;;;;1.07;0.70;;;29.90;51.60;;;;;;5014266;28;20168;-72
2022/07/15 06:49:57;;;;;;;0.60;0.60;;;29.90;52.20;;;;;;5016883;28;20430;-72
2022/07/15 06:52:22;;;;;;;0.70;0.70;;;29.80;52.40;;;;;;5017081;28;20484;-72
2022/07/15 06:54:48;;;;;;;2.10;0.67;;;29.70;50.90;;;;;;5015560;28;20164;-72
2022/07/15 06:57:16;;;;;;;0.63;0.63;;;29.90;50.90;;;;;;5015265;28;20666;-72
2022/07/15 06:59:42;;;;;;;3.50;0.80;;;30.40;50.20;;;;;;5015966;28;20187;-72
2022/07/15 07:02:08;;;;;;;0.67;0.50;;;31.00;49.30;;;;;;5013997;28;20990;-72
2022/07/15 07:04:34;;;;;;;0.87;0.87;;;31.90;46.10;;;;;;5016359;28;20486;-71
2022/07/15 07:07:07;;;;;;;0.50;0.43;;;32.90;44.80;;;;;;5016344;28;20182;-72
2022/07/15 07:09:33;;;;;;;0.80;0.80;;;33.80;43.10;;;;;;5014741;28;20283;-72
2022/07/15 07:11:59;;;;;;;0.80;0.80;;;34.80;41.40;;;;;;5013267;28;20450;-73
2022/07/15 07:14:24;;;;;;;1.23;1.03;;;35.30;38.90;;;;;;5013725;28;20456;-73
2022/07/15 07:16:50;;;;;;;1.47;1.00;;;35.20;38.40;;;;;;5014451;28;20294;-73
2022/07/15 07:19:16;;;;;;;1.27;0.80;;;35.10;38.70;;;;;;5013795;28;20191;-72
2022/07/15 07:21:42;;;;;;;0.73;0.73;;;34.60;39.30;;;;;;5015588;28;20174;-72
2022/07/15 07:24:07;;;;;;;1.07;0.97;;;34.70;39.30;;;;;;5015556;28;20187;-73
2022/07/15 07:26:34;;;;;;;1.73;0.97;;;34.40;38.60;;;;;;5016316;28;20663;-73
2022/07/15 07:29:01;;;;;;;1.30;1.20;;;34.20;38.90;;;;;;5016264;28;20273;-72
2022/07/15 07:31:26;;;;;;;0.67;0.67;;;34.50;39.10;;;;;;5016262;28;20399;-72
2022/07/15 07:33:55;;;;;;;0.70;0.70;;;34.60;39.20;;;;;;5016300;28;20163;-71
2022/07/15 07:36:20;;;;;;;0.73;0.70;;;34.80;38.10;;;;;;5016172;28;20201;-72
2022/07/15 07:38:46;;;;;;;1.10;0.97;;;34.70;37.20;;;;;;5016146;28;20435;-73
2022/07/15 07:41:12;;;;;;;0.60;0.60;;;35.00;38.20;;;;;;5016056;28;20618;-73
2022/07/15 07:43:38;;;;;;;0.90;0.90;;;35.30;37.20;;;;;;5015819;28;20172;-72
2022/07/15 07:46:04;;;;;;;0.77;0.70;;;35.90;37.00;;;;;;5014190;28;20175;-73
2022/07/15 07:48:30;;;;;;;0.77;0.77;;;36.20;35.20;;;;;;5013628;28;20441;-72
2022/07/15 07:50:57;;;;;;;0.60;0.60;;;37.00;35.80;;;;;;5013864;28;20414;-74
2022/07/15 07:53:23;;;;;;;0.87;0.80;;;38.10;35.00;;;;;;5012759;28;20176;-72
2022/07/15 07:55:49;;;;;;;0.83;0.83;;;39.30;33.80;;;;;;5014102;28;20461;-74
2022/07/15 07:58:16;;;;;;;1.27;0.70;;;40.10;31.90;;;;;;5014231;28;20231;-71
2022/07/15 08:00:42;;;;;;;1.00;0.90;;;40.90;30.40;;;;;;5013692;28;20829;-71
2022/07/15 08:03:08;;;;;;;0.70;0.60;;;40.70;30.40;;;;;;5015305;28;20407;-71
2022/07/15 08:05:34;;;;;;;1.47;0.93;;;40.90;29.70;;;;;;5015536;28;20891;-71
2022/07/15 08:08:15;;;;;;;0.73;0.73;;;40.70;29.50;;;;;;5015248;28;20630;-72
2022/07/15 08:10:43;;;;;;;0.60;0.60;;;41.30;29.50;;;;;;5015525;28;20266;-71
2022/07/15 08:13:09;;;;;;;0.70;0.70;;;41.00;29.00;;;;;;5015630;28;20413;-71
2022/07/15 08:15:35;;;;;;;0.60;0.60;;;39.80;30.10;;;;;;5015207;28;20407;-71
2022/07/15 08:18:01;;;;;;;0.80;0.80;;;38.20;30.90;;;;;;5015212;28;20180;-71
2022/07/15 08:20:28;;;;;;;0.90;0.87;;;37.70;32.00;;;;;;5015288;28;20163;-71
2022/07/15 08:22:58;;;;;;;1.03;0.93;;;37.60;31.70;;;;;;5015279;28;20407;-71
2022/07/15 08:25:33;;;;;;;0.70;0.70;;;38.20;32.30;;;;;;5015191;28;20430;-71
2022/07/15 08:27:59;;;;;;;0.80;0.80;;;38.00;32.10;;;;;;5014986;28;20417;-71
2022/07/15 08:30:30;;;;;;;0.90;0.90;;;37.30;32.30;;;;;;5014642;28;20799;-71
2022/07/15 08:32:56;;;;;;;0.80;0.80;;;35.90;33.40;;;;;;5015272;28;20735;-70
2022/07/15 08:35:23;;;;;;;3.07;0.83;;;34.30;35.40;;;;;;5015109;28;20968;-71
2022/07/15 08:37:49;;;;;;;1.23;0.87;;;32.60;38.70;;;;;;5014637;28;20822;-70
2022/07/15 08:40:15;;;;;;;0.60;0.60;;;31.20;40.00;;;;;;5014827;28;20402;-71
2022/07/15 08:42:43;;;;;;;1.00;1.00;;;30.20;41.80;;;;;;5014957;28;20406;-71
2022/07/15 08:45:10;;;;;;;0.80;0.80;;;29.30;44.10;;;;;;5014986;28;20444;-71
2022/07/15 08:47:38;;;;;;;0.63;0.60;;;29.70;43.40;;;;;;5014626;28;20410;-70
2022/07/15 08:50:04;;;;;;;0.80;0.80;;;31.30;41.60;;;;;;5014839;28;20824;-71
2022/07/15 08:52:33;;;;;;;0.77;0.77;;;33.40;39.50;;;;;;5012527;28;20452;-70
2022/07/15 08:54:59;;;;;;;0.73;0.73;;;33.70;38.10;;;;;;5014273;28;20414;-71
2022/07/15 08:57:25;;;;;;;1.17;1.07;;;32.50;38.10;;;;;;5012583;28;20972;-70
2022/07/15 08:59:52;;;;;;;1.10;1.10;;;30.90;39.90;;;;;;5012792;28;20430;-70
2022/07/15 09:02:21;;;;;;;1.00;0.90;;;29.60;42.00;;;;;;5013777;28;20457;-71
2022/07/15 09:05:18;;;;;;;1.13;0.70;;;29.20;46.20;;;;;;5012544;28;20403;-69
2022/07/15 09:07:55;;;;;;;2.13;1.00;;;29.50;46.10;;;;;;5014236;28;20411;-71
2022/07/15 09:10:22;;;;;;;1.23;0.90;;;31.50;43.30;;;;;;5014345;28;20410;-71
2022/07/15 09:12:53;;;;;;;1.63;1.00;;;33.60;40.80;;;;;;5014461;28;20437;-71
2022/07/15 09:15:29;;;;;;;0.97;0.97;;;35.00;37.80;;;;;;5014493;28;20460;-71
2022/07/15 09:18:17;;;;;;;0.60;0.60;;;36.60;35.90;;;;;;5014397;28;20410;-70
2022/07/15 09:20:44;;;;;;;0.83;0.83;;;36.90;34.80;;;;;;5014392;28;20759;-70
2022/07/15 09:23:12;;;;;;;0.90;0.90;;;34.80;35.50;;;;;;5014332;28;20403;-70
2022/07/15 09:25:39;;;;;;;5.10;1.17;;;33.30;38.70;;;;;;5013994;28;20426;-71
2022/07/15 09:28:07;;;;;;;1.23;0.90;;;33.60;36.30;;;;;;5013812;28;20774;-70
2022/07/15 09:33:36;;;;;;;1.30;1.20;;;35.60;34.40;;;;;;5014153;28;20409;-71
2022/07/15 09:36:22;;;;;;;0.80;0.80;;;35.60;35.00;;;;;;5012567;28;20805;-72
2022/07/15 09:38:51;;;;;;;1.03;0.97;;;36.60;33.70;;;;;;5012875;28;20514;-71
2022/07/15 09:41:40;;;;;;;1.00;1.00;;;37.60;33.00;;;;;;5011927;28;20410;-70
2022/07/15 09:44:08;;;;;;;1.30;1.20;;;37.20;33.20;;;;;;5012698;28;20444;-71
2022/07/15 09:46:43;;;;;;;1.00;1.00;;;36.80;32.80;;;;;;5013876;28;20493;-70
2022/07/15 09:49:10;;;;;;;1.10;1.00;;;35.50;35.30;;;;;;5011799;28;20820;-70
2022/07/15 09:51:49;;;;;;;0.87;0.83;;;33.80;37.50;;;;;;5013886;28;20410;-71
2022/07/15 09:54:16;;;;;;;1.27;1.17;;;34.00;38.50;;;;;;5013862;28;20410;-71
2022/07/15 09:56:43;;;;;;;1.03;0.93;;;34.70;36.50;;;;;;5013785;28;20446;-70
2022/07/15 09:59:09;;;;;;;1.20;1.10;;;34.70;36.10;;;;;;5013412;28;20645;-71
2022/07/15 10:01:36;;;;;;;1.33;1.20;;;34.70;34.90;;;;;;5013860;28;20497;-72
2022/07/15 10:04:03;;;;;;;1.43;1.37;;;34.60;35.60;;;;;;5013886;28;20164;-70
2022/07/15 10:06:28;;;;;;;1.20;1.10;;;34.30;37.10;;;;;;5012363;28;20934;-70
2022/07/15 10:08:55;;;;;;;1.13;1.03;;;32.50;38.20;;;;;;5011531;28;20439;-70
2022/07/15 10:11:21;;;;;;;1.43;1.10;;;31.00;39.80;;;;;;5012709;28;20254;-70
2022/07/15 10:14:19;;;;;;;0.90;0.80;;;31.00;42.10;;;;;;5012467;28;20509;-73
2022/07/15 10:16:55;;;;;;;1.00;1.00;;;32.20;40.20;;;;;;5007981;28;20224;-72
2022/07/15 10:19:58;;;;;;;0.90;0.90;;;33.60;39.60;;;;;;5013754;28;20434;-73
2022/07/15 10:22:36;;;;;;;1.20;1.03;;;34.20;36.30;;;;;;5013406;28;20406;-72
2022/07/15 10:25:45;;;;;;;0.73;0.73;;;33.90;35.50;;;;;;5012128;28;20477;-72
2022/07/15 10:28:22;;;;;;;0.80;0.80;;;34.10;33.80;;;;;;5012481;28;20430;-73
2022/07/15 10:31:13;;;;;;;0.50;0.50;;;34.60;36.40;;;;;;5013700;28;20406;-73
2022/07/15 10:33:39;;;;;;;1.00;0.80;;;34.60;36.30;;;;;;5013649;28;20489;-73
2022/07/15 10:36:06;;;;;;;0.60;0.60;;;33.40;33.30;;;;;;5013202;28;20544;-73
2022/07/15 10:38:34;;;;;;;1.50;1.00;;;33.30;35.50;;;;;;5013107;28;20423;-73
2022/07/15 10:41:01;;;;;;;0.70;0.70;;;33.10;37.90;;;;;;5013555;28;20409;-73
2022/07/15 10:43:52;;;;;;;1.60;1.50;;;33.30;34.70;;;;;;5013402;28;20399;-72
2022/07/15 10:46:23;;;;;;;0.93;0.80;;;33.50;34.80;;;;;;5013466;28;20413;-73
2022/07/15 10:48:57;;;;;;;1.00;1.00;;;33.00;34.60;;;;;;5013125;28;20442;-72
2022/07/15 10:51:49;;;;;;;1.10;0.80;;;33.20;35.40;;;;;;5011213;28;20813;-73
2022/07/15 10:54:18;;;;;;;0.83;0.83;;;33.70;38.60;;;;;;5009399;28;20453;-73
2022/07/15 10:56:45;;;;;;;1.37;0.97;;;33.00;35.10;;;;;;5014690;28;20450;-71
2022/07/15 10:59:19;;;;;;;2.50;0.93;;;31.80;35.90;;;;;;5014336;28;20430;-72
2022/07/15 11:01:48;;;;;;;0.73;0.73;;;31.20;40.30;;;;;;5016210;28;20812;-72
2022/07/15 11:04:23;;;;;;;0.53;0.53;;;31.10;37.90;;;;;;5015361;28;20442;-73
2022/07/15 11:09:57;;;;;;;1.00;1.00;;;30.70;37.10;;;;;;5016589;28;20508;-72
2022/07/15 11:12:24;;;;;;;2.13;1.67;;;30.60;38.00;;;;;;5015522;28;20411;-71
2022/07/15 11:15:12;;;;;;;1.27;0.93;;;30.60;38.70;;;;;;5016596;28;20413;-72
2022/07/15 11:17:41;;;;;;;1.20;1.10;;;30.50;38.00;;;;;;5008442;28;20478;-72
2022/07/15 11:20:31;;;;;;;0.90;0.90;;;30.40;37.60;;;;;;5016448;28;20442;-72
2022/07/15 11:22:58;;;;;;;0.93;0.93;;;30.00;37.90;;;;;;5016721;28;20493;-72
2022/07/15 11:25:26;;;;;;;0.77;0.77;;;29.30;40.30;;;;;;5016640;28;20426;-72
2022/07/15 11:28:05;;;;;;;0.83;0.73;;;29.30;40.50;;;;;;5016282;28;20410;-71
2022/07/15 11:30:55;;;;;;;0.90;0.90;;;29.20;40.40;;;;;;5015173;28;20953;-72
2022/07/15 11:33:27;;;;;;;0.70;0.70;;;29.40;42.30;;;;;;5016600;28;20410;-71
2022/07/15 11:35:54;;;;;;;0.80;0.80;;;29.70;42.10;;;;;;5016294;28;20529;-71
2022/07/15 11:38:27;;;;;;;0.80;0.80;;;29.20;40.80;;;;;;5015845;28;20431;-72
2022/07/15 11:46:50;;;;;;;0.83;0.80;;;29.40;43.00;;;;;;5016441;28;20400;-72
2022/07/15 11:49:39;;;;;;;0.60;0.60;;;29.50;43.50;;;;;;5015772;28;20526;-72
2022/07/15 11:52:07;;;;;;;1.07;0.90;;;29.60;40.20;;;;;;5008604;28;20418;-72
2022/07/15 11:54:35;;;;;;;1.00;0.83;;;29.70;41.40;;;;;;5016262;28;20746;-72
2022/07/15 11:57:04;;;;;;;1.10;1.00;;;29.80;41.30;;;;;;5015646;28;20446;-71
2022/07/15 11:59:30;;;;;;;0.93;0.93;;;29.60;42.80;;;;;;5016038;28;21026;-72
2022/07/15 12:02:10;;;;;;;0.80;0.60;;;29.60;41.00;;;;;;5015770;28;20494;-72
2022/07/15 12:04:37;;;;;;;1.60;0.80;;;29.40;42.60;;;;;;5016086;28;20511;-72
2022/07/15 12:07:04;;;;;;;1.50;1.17;;;29.20;40.30;;;;;;5014820;28;20414;-72
2022/07/15 12:09:47;;;;;;;0.80;0.80;;;29.10;42.50;;;;;;5014574;28;20476;-71
2022/07/15 12:12:14;;;;;;;0.83;0.83;;;28.90;42.70;;;;;;5015504;28;20410;-72
2022/07/15 12:14:42;;;;;;;0.97;0.97;;;28.90;43.60;;;;;;5015568;28;20451;-72
2022/07/15 12:17:09;;;;;;;1.23;0.80;;;28.90;42.50;;;;;;5015473;28;20457;-71
2022/07/15 12:19:35;;;;;;;0.73;0.70;;;28.60;41.60;;;;;;5013553;28;20418;-72
2022/07/15 12:22:06;;;;;;;1.23;1.13;;;28.50;43.00;;;;;;5015408;28;20741;-71
2022/07/15 12:24:44;;;;;;;0.47;0.47;;;28.40;42.40;;;;;;5015228;28;20281;-71
2022/07/15 12:27:10;;;;;;;1.57;1.47;;;28.10;40.00;;;;;;5013515;28;20381;-71
2022/07/15 12:29:36;;;;;;;0.50;0.50;;;27.80;41.80;;;;;;5014686;28;20521;-72
2022/07/15 12:32:05;;;;;;;0.60;0.53;;;27.60;43.40;;;;;;5015127;28;20392;-72
2022/07/15 12:34:51;;;;;;;0.97;0.80;;;27.70;41.00;;;;;;5015256;28;20403;-71
2022/07/15 12:37:22;;;;;;;1.23;0.90;;;27.80;42.00;;;;;;5014776;28;20457;-72
2022/07/15 12:40:08;;;;;;;0.80;0.67;;;27.80;41.00;;;;;;5014929;28;20476;-71
2022/07/15 12:42:49;;;;;;;2.30;0.97;;;27.70;39.80;;;;;;5013777;28;20411;-71
2022/07/15 12:45:20;;;;;;;0.50;0.47;;;27.70;39.50;;;;;;5014971;28;20747;-71
2022/07/15 12:48:16;;;;;;;0.83;0.83;;;27.80;36.40;;;;;;5014819;28;20410;-72
2022/07/15 12:50:49;;;;;;;0.50;0.50;;;27.80;38.80;;;;;;5014832;28;20389;-71
2022/07/15 12:53:15;;;;;;;0.57;0.57;;;27.80;36.80;;;;;;5014861;28;20403;-72
2022/07/15 12:55:44;;;;;;;1.37;1.27;;;27.90;37.20;;;;;;5014501;28;20424;-72
2022/07/15 12:58:13;;;;;;;0.60;0.57;;;27.90;36.70;;;;;;5014361;28;20509;-72
2022/07/15 13:00:39;;;;;;;0.60;0.60;;;28.00;37.50;;;;;;5014805;28;20407;-73
2022/07/15 13:03:16;;;;;;;0.97;0.83;;;28.00;36.90;;;;;;5014623;28;20399;-71
2022/07/15 13:05:43;;;;;;;0.73;0.73;;;27.70;34.30;;;;;;5014585;28;20422;-72
2022/07/15 13:08:11;;;;;;;0.60;0.60;;;27.70;35.10;;;;;;5014494;28;20403;-72
2022/07/15 13:10:39;;;;;;;0.63;0.63;;;27.60;34.50;;;;;;5014450;28;20406;-72
2022/07/15 13:13:05;;;;;;;1.03;0.70;;;27.50;36.70;;;;;;5014353;28;20402;-72